sensor_id;sensor_type;location;lat;lon;timestamp;P1;durP1;ratioP1;P2;durP2;ratioP2
73840;SDS011;62183;49.006;12.102;2022-09-13T00:01:08;7.40;;;6.40;;
73840;SDS011;62183;49.006;12.102;2022-09-13T00:03:33;10.45;;;6.88;;
73840;SDS011;62183;49.006;12.102;2022-09-13T00:06:05;10.50;;;7.27;;
73840;SDS011;62183;49.006;12.102;2022-09-13T00:08:31;9.05;;;6.97;;
73840;SDS011;62183;49.006;12.102;2022-09-13T00:10:56;9.60;;;6.43;;
73840;SDS011;62183;49.006;12.102;2022-09-13T00:13:21;8.50;;;6.83;;
73840;SDS011;62183;49.006;12.102;2022-09-13T00:15:47;6.97;;;6.00;;
73840;SDS011;62183;49.006;12.102;2022-09-13T00:18:12;9.27;;;6.30;;
73840;SDS011;62183;49.006;12.102;2022-09-13T00:20:38;7.60;;;6.30;;
73840;SDS011;62183;49.006;12.102;2022-09-13T00:23:03;7.45;;;6.47;;
73840;SDS011;62183;49.006;12.102;2022-09-13T00:25:28;8.67;;;6.47;;
73840;SDS011;62183;49.006;12.102;2022-09-13T00:27:53;8.65;;;6.57;;
73840;SDS011;62183;49.006;12.102;2022-09-13T00:30:19;10.33;;;7.03;;
73840;SDS011;62183;49.006;12.102;2022-09-13T00:32:44;8.47;;;6.97;;
73840;SDS011;62183;49.006;12.102;2022-09-13T00:35:09;8.53;;;6.53;;
73840;SDS011;62183;49.006;12.102;2022-09-13T00:37:34;9.77;;;6.90;;
73840;SDS011;62183;49.006;12.102;2022-09-13T00:40:00;10.70;;;6.67;;
73840;SDS011;62183;49.006;12.102;2022-09-13T00:42:26;7.78;;;6.70;;
73840;SDS011;62183;49.006;12.102;2022-09-13T00:44:53;9.73;;;6.95;;
73840;SDS011;62183;49.006;12.102;2022-09-13T00:47:19;8.82;;;6.85;;
73840;SDS011;62183;49.006;12.102;2022-09-13T00:49:46;9.45;;;6.70;;
73840;SDS011;62183;49.006;12.102;2022-09-13T00:52:12;9.25;;;7.30;;
73840;SDS011;62183;49.006;12.102;2022-09-13T00:54:40;10.15;;;6.47;;
73840;SDS011;62183;49.006;12.102;2022-09-13T00:57:06;11.35;;;7.57;;
73840;SDS011;62183;49.006;12.102;2022-09-13T00:59:35;9.00;;;7.22;;
73840;SDS011;62183;49.006;12.102;2022-09-13T01:02:01;8.65;;;6.72;;
73840;SDS011;62183;49.006;12.102;2022-09-13T01:04:27;8.60;;;6.22;;
73840;SDS011;62183;49.006;12.102;2022-09-13T01:06:55;12.23;;;7.35;;
73840;SDS011;62183;49.006;12.102;2022-09-13T01:09:23;13.48;;;7.50;;
73840;SDS011;62183;49.006;12.102;2022-09-13T01:11:52;9.25;;;7.18;;
73840;SDS011;62183;49.006;12.102;2022-09-13T01:14:19;11.52;;;7.85;;
73840;SDS011;62183;49.006;12.102;2022-09-13T01:16:44;9.75;;;7.13;;
73840;SDS011;62183;49.006;12.102;2022-09-13T01:19:10;12.55;;;8.60;;
73840;SDS011;62183;49.006;12.102;2022-09-13T01:22:19;16.80;;;10.10;;
73840;SDS011;62183;49.006;12.102;2022-09-13T01:24:41;17.67;;;9.80;;
73840;SDS011;62183;49.006;12.102;2022-09-13T01:35:30;15.70;;;10.80;;
73840;SDS011;62183;49.006;12.102;2022-09-13T01:40:34;13.77;;;9.25;;
73840;SDS011;62183;49.006;12.102;2022-09-13T01:43:11;17.48;;;10.43;;
73840;SDS011;62183;49.006;12.102;2022-09-13T01:48:08;16.23;;;9.30;;
73840;SDS011;62183;49.006;12.102;2022-09-13T01:51:10;14.05;;;9.90;;
73840;SDS011;62183;49.006;12.102;2022-09-13T01:56:04;13.38;;;9.45;;
73840;SDS011;62183;49.006;12.102;2022-09-13T01:58:51;11.77;;;9.18;;
73840;SDS011;62183;49.006;12.102;2022-09-13T02:01:20;14.30;;;9.35;;
73840;SDS011;62183;49.006;12.102;2022-09-13T02:03:52;12.40;;;8.93;;
73840;SDS011;62183;49.006;12.102;2022-09-13T02:06:22;14.77;;;8.98;;
73840;SDS011;62183;49.006;12.102;2022-09-13T02:08:59;14.05;;;9.20;;
73840;SDS011;62183;49.006;12.102;2022-09-13T02:11:25;16.40;;;9.85;;
73840;SDS011;62183;49.006;12.102;2022-09-13T02:16:21;15.17;;;9.50;;
73840;SDS011;62183;49.006;12.102;2022-09-13T02:18:50;15.32;;;9.10;;
73840;SDS011;62183;49.006;12.102;2022-09-13T02:21:23;12.27;;;8.95;;
73840;SDS011;62183;49.006;12.102;2022-09-13T02:23:50;13.43;;;9.38;;
73840;SDS011;62183;49.006;12.102;2022-09-13T02:26:16;15.13;;;9.73;;
73840;SDS011;62183;49.006;12.102;2022-09-13T02:28:47;12.35;;;9.13;;
73840;SDS011;62183;49.006;12.102;2022-09-13T02:31:13;12.68;;;9.65;;
73840;SDS011;62183;49.006;12.102;2022-09-13T02:33:43;15.52;;;9.88;;
73840;SDS011;62183;49.006;12.102;2022-09-13T02:36:12;12.68;;;8.95;;
73840;SDS011;62183;49.006;12.102;2022-09-13T02:41:06;13.57;;;9.17;;
73840;SDS011;62183;49.006;12.102;2022-09-13T02:43:36;18.15;;;9.77;;
73840;SDS011;62183;49.006;12.102;2022-09-13T02:46:10;15.82;;;10.05;;
73840;SDS011;62183;49.006;12.102;2022-09-13T02:48:43;17.65;;;10.88;;
73840;SDS011;62183;49.006;12.102;2022-09-13T02:51:16;21.38;;;11.00;;
73840;SDS011;62183;49.006;12.102;2022-09-13T03:01:22;17.15;;;10.13;;
73840;SDS011;62183;49.006;12.102;2022-09-13T03:03:47;17.97;;;10.23;;
73840;SDS011;62183;49.006;12.102;2022-09-13T03:06:19;15.30;;;10.83;;
73840;SDS011;62183;49.006;12.102;2022-09-13T03:11:30;15.80;;;10.25;;
73840;SDS011;62183;49.006;12.102;2022-09-13T03:27:15;19.13;;;11.10;;
73840;SDS011;62183;49.006;12.102;2022-09-13T03:29:51;18.80;;;9.75;;
73840;SDS011;62183;49.006;12.102;2022-09-13T03:34:50;17.77;;;10.80;;
73840;SDS011;62183;49.006;12.102;2022-09-13T03:37:21;17.73;;;10.48;;
73840;SDS011;62183;49.006;12.102;2022-09-13T03:40:24;19.25;;;11.95;;
73840;SDS011;62183;49.006;12.102;2022-09-13T03:42:42;13.63;;;9.68;;
73840;SDS011;62183;49.006;12.102;2022-09-13T03:45:09;14.52;;;9.70;;
73840;SDS011;62183;49.006;12.102;2022-09-13T03:47:35;17.27;;;10.93;;
73840;SDS011;62183;49.006;12.102;2022-09-13T03:50:01;15.18;;;10.20;;
73840;SDS011;62183;49.006;12.102;2022-09-13T03:52:27;13.23;;;9.00;;
73840;SDS011;62183;49.006;12.102;2022-09-13T03:54:52;13.63;;;9.83;;
73840;SDS011;62183;49.006;12.102;2022-09-13T03:57:18;12.88;;;9.70;;
73840;SDS011;62183;49.006;12.102;2022-09-13T03:59:45;13.50;;;9.05;;
73840;SDS011;62183;49.006;12.102;2022-09-13T04:02:10;12.93;;;8.65;;
73840;SDS011;62183;49.006;12.102;2022-09-13T04:04:37;15.52;;;9.70;;
73840;SDS011;62183;49.006;12.102;2022-09-13T04:07:02;13.77;;;9.80;;
73840;SDS011;62183;49.006;12.102;2022-09-13T04:09:27;11.93;;;9.00;;
73840;SDS011;62183;49.006;12.102;2022-09-13T04:11:52;12.63;;;9.30;;
73840;SDS011;62183;49.006;12.102;2022-09-13T04:14:17;12.90;;;8.40;;
73840;SDS011;62183;49.006;12.102;2022-09-13T04:16:42;14.07;;;9.30;;
73840;SDS011;62183;49.006;12.102;2022-09-13T04:19:08;11.13;;;8.10;;
73840;SDS011;62183;49.006;12.102;2022-09-13T04:21:33;11.57;;;8.13;;
73840;SDS011;62183;49.006;12.102;2022-09-13T04:23:58;13.90;;;8.10;;
73840;SDS011;62183;49.006;12.102;2022-09-13T04:26:23;14.83;;;8.43;;
73840;SDS011;62183;49.006;12.102;2022-09-13T04:28:48;13.13;;;8.43;;
73840;SDS011;62183;49.006;12.102;2022-09-13T04:31:14;13.50;;;8.50;;
73840;SDS011;62183;49.006;12.102;2022-09-13T04:33:39;15.50;;;8.80;;
73840;SDS011;62183;49.006;12.102;2022-09-13T04:36:04;14.50;;;9.70;;
73840;SDS011;62183;49.006;12.102;2022-09-13T04:38:29;13.63;;;9.82;;
73840;SDS011;62183;49.006;12.102;2022-09-13T04:40:54;13.50;;;9.67;;
73840;SDS011;62183;49.006;12.102;2022-09-13T04:43:20;14.70;;;8.80;;
73840;SDS011;62183;49.006;12.102;2022-09-13T04:45:45;15.55;;;10.48;;
73840;SDS011;62183;49.006;12.102;2022-09-13T04:48:11;12.70;;;8.80;;
73840;SDS011;62183;49.006;12.102;2022-09-13T04:50:36;16.67;;;9.63;;
73840;SDS011;62183;49.006;12.102;2022-09-13T04:53:01;19.73;;;10.47;;
73840;SDS011;62183;49.006;12.102;2022-09-13T04:55:26;17.87;;;10.33;;
73840;SDS011;62183;49.006;12.102;2022-09-13T04:57:52;19.40;;;10.57;;
73840;SDS011;62183;49.006;12.102;2022-09-13T05:00:17;28.65;;;10.77;;
73840;SDS011;62183;49.006;12.102;2022-09-13T05:02:42;16.40;;;9.90;;
73840;SDS011;62183;49.006;12.102;2022-09-13T05:05:07;18.93;;;11.23;;
73840;SDS011;62183;49.006;12.102;2022-09-13T05:07:33;25.90;;;10.70;;
73840;SDS011;62183;49.006;12.102;2022-09-13T05:09:58;18.90;;;10.00;;
73840;SDS011;62183;49.006;12.102;2022-09-13T05:12:23;21.17;;;10.47;;
73840;SDS011;62183;49.006;12.102;2022-09-13T05:14:48;11.67;;;8.40;;
73840;SDS011;62183;49.006;12.102;2022-09-13T05:17:13;17.60;;;10.47;;
73840;SDS011;62183;49.006;12.102;2022-09-13T05:19:39;21.80;;;11.70;;
73840;SDS011;62183;49.006;12.102;2022-09-13T05:22:04;14.07;;;10.03;;
73840;SDS011;62183;49.006;12.102;2022-09-13T05:24:29;23.03;;;11.40;;
73840;SDS011;62183;49.006;12.102;2022-09-13T05:26:54;25.83;;;11.07;;
73840;SDS011;62183;49.006;12.102;2022-09-13T05:29:19;18.70;;;10.50;;
73840;SDS011;62183;49.006;12.102;2022-09-13T05:31:44;21.87;;;10.67;;
73840;SDS011;62183;49.006;12.102;2022-09-13T05:34:11;23.63;;;10.70;;
73840;SDS011;62183;49.006;12.102;2022-09-13T05:36:37;30.90;;;10.48;;
73840;SDS011;62183;49.006;12.102;2022-09-13T05:39:03;31.13;;;9.35;;
73840;SDS011;62183;49.006;12.102;2022-09-13T05:41:28;22.63;;;9.73;;
73840;SDS011;62183;49.006;12.102;2022-09-13T05:43:53;20.37;;;9.80;;
73840;SDS011;62183;49.006;12.102;2022-09-13T05:46:19;21.43;;;9.37;;
73840;SDS011;62183;49.006;12.102;2022-09-13T05:48:44;18.75;;;10.02;;
73840;SDS011;62183;49.006;12.102;2022-09-13T05:51:11;19.13;;;9.95;;
73840;SDS011;62183;49.006;12.102;2022-09-13T05:53:37;19.35;;;8.93;;
73840;SDS011;62183;49.006;12.102;2022-09-13T05:56:02;14.27;;;9.25;;
73840;SDS011;62183;49.006;12.102;2022-09-13T05:58:27;16.87;;;9.53;;
73840;SDS011;62183;49.006;12.102;2022-09-13T06:00:53;16.00;;;8.87;;
73840;SDS011;62183;49.006;12.102;2022-09-13T06:03:18;16.83;;;8.93;;
73840;SDS011;62183;49.006;12.102;2022-09-13T06:05:43;15.70;;;9.40;;
73840;SDS011;62183;49.006;12.102;2022-09-13T06:08:09;13.13;;;10.00;;
73840;SDS011;62183;49.006;12.102;2022-09-13T06:10:34;12.23;;;8.53;;
73840;SDS011;62183;49.006;12.102;2022-09-13T06:12:59;14.73;;;9.10;;
73840;SDS011;62183;49.006;12.102;2022-09-13T06:15:24;11.87;;;9.37;;
73840;SDS011;62183;49.006;12.102;2022-09-13T06:17:49;16.30;;;9.67;;
73840;SDS011;62183;49.006;12.102;2022-09-13T06:20:15;13.10;;;9.87;;
73840;SDS011;62183;49.006;12.102;2022-09-13T06:22:40;14.17;;;9.10;;
73840;SDS011;62183;49.006;12.102;2022-09-13T06:25:05;11.37;;;8.30;;
73840;SDS011;62183;49.006;12.102;2022-09-13T06:27:30;9.82;;;8.32;;
73840;SDS011;62183;49.006;12.102;2022-09-13T06:29:55;11.83;;;8.97;;
73840;SDS011;62183;49.006;12.102;2022-09-13T06:32:21;13.93;;;8.83;;
73840;SDS011;62183;49.006;12.102;2022-09-13T06:34:46;10.00;;;8.30;;
73840;SDS011;62183;49.006;12.102;2022-09-13T06:37:11;11.00;;;8.67;;
73840;SDS011;62183;49.006;12.102;2022-09-13T06:39:36;13.05;;;9.90;;
73840;SDS011;62183;49.006;12.102;2022-09-13T06:42:02;12.53;;;9.00;;
73840;SDS011;62183;49.006;12.102;2022-09-13T06:44:27;14.85;;;10.77;;
73840;SDS011;62183;49.006;12.102;2022-09-13T06:46:52;17.17;;;10.13;;
73840;SDS011;62183;49.006;12.102;2022-09-13T06:49:17;13.70;;;10.50;;
73840;SDS011;62183;49.006;12.102;2022-09-13T06:51:42;16.67;;;10.60;;
73840;SDS011;62183;49.006;12.102;2022-09-13T06:54:08;17.07;;;11.70;;
73840;SDS011;62183;49.006;12.102;2022-09-13T06:56:33;12.80;;;10.53;;
73840;SDS011;62183;49.006;12.102;2022-09-13T06:59:00;12.15;;;10.32;;
73840;SDS011;62183;49.006;12.102;2022-09-13T07:01:29;14.15;;;10.48;;
73840;SDS011;62183;49.006;12.102;2022-09-13T07:06:26;15.00;;;12.10;;
73840;SDS011;62183;49.006;12.102;2022-09-13T07:08:52;13.18;;;10.60;;
73840;SDS011;62183;49.006;12.102;2022-09-13T07:11:18;12.60;;;10.73;;
73840;SDS011;62183;49.006;12.102;2022-09-13T07:13:47;13.55;;;11.73;;
73840;SDS011;62183;49.006;12.102;2022-09-13T07:16:12;12.68;;;11.38;;
73840;SDS011;62183;49.006;12.102;2022-09-13T07:18:38;14.97;;;11.10;;
73840;SDS011;62183;49.006;12.102;2022-09-13T07:21:04;13.57;;;12.17;;
73840;SDS011;62183;49.006;12.102;2022-09-13T07:23:30;12.38;;;11.18;;
73840;SDS011;62183;49.006;12.102;2022-09-13T07:25:55;12.30;;;11.02;;
73840;SDS011;62183;49.006;12.102;2022-09-13T07:28:21;11.38;;;10.20;;
73840;SDS011;62183;49.006;12.102;2022-09-13T07:30:46;12.10;;;10.77;;
73840;SDS011;62183;49.006;12.102;2022-09-13T07:33:11;12.47;;;11.20;;
73840;SDS011;62183;49.006;12.102;2022-09-13T07:35:36;13.13;;;11.83;;
73840;SDS011;62183;49.006;12.102;2022-09-13T07:38:02;13.70;;;12.40;;
73840;SDS011;62183;49.006;12.102;2022-09-13T07:40:27;12.77;;;11.57;;
73840;SDS011;62183;49.006;12.102;2022-09-13T07:42:52;12.17;;;11.07;;
73840;SDS011;62183;49.006;12.102;2022-09-13T07:45:17;12.90;;;11.77;;
73840;SDS011;62183;49.006;12.102;2022-09-13T07:47:42;12.30;;;11.10;;
73840;SDS011;62183;49.006;12.102;2022-09-13T07:50:07;12.43;;;11.23;;
73840;SDS011;62183;49.006;12.102;2022-09-13T07:52:33;12.93;;;11.70;;
73840;SDS011;62183;49.006;12.102;2022-09-13T07:54:58;12.47;;;11.30;;
73840;SDS011;62183;49.006;12.102;2022-09-13T07:57:23;13.27;;;12.03;;
73840;SDS011;62183;49.006;12.102;2022-09-13T07:59:48;12.00;;;10.87;;
73840;SDS011;62183;49.006;12.102;2022-09-13T08:02:13;11.83;;;10.73;;
73840;SDS011;62183;49.006;12.102;2022-09-13T08:04:39;10.82;;;9.82;;
73840;SDS011;62183;49.006;12.102;2022-09-13T08:07:05;11.27;;;10.27;;
73840;SDS011;62183;49.006;12.102;2022-09-13T08:09:30;12.60;;;11.30;;
73840;SDS011;62183;49.006;12.102;2022-09-13T08:11:55;11.40;;;10.47;;
73840;SDS011;62183;49.006;12.102;2022-09-13T08:14:21;12.63;;;11.27;;
73840;SDS011;62183;49.006;12.102;2022-09-13T08:16:46;11.80;;;10.80;;
73840;SDS011;62183;49.006;12.102;2022-09-13T08:19:13;12.70;;;11.43;;
73840;SDS011;62183;49.006;12.102;2022-09-13T08:21:39;12.15;;;11.02;;
73840;SDS011;62183;49.006;12.102;2022-09-13T08:24:05;11.98;;;10.77;;
73840;SDS011;62183;49.006;12.102;2022-09-13T08:26:31;12.07;;;10.88;;
73840;SDS011;62183;49.006;12.102;2022-09-13T08:29:00;12.70;;;11.15;;
73840;SDS011;62183;49.006;12.102;2022-09-13T08:31:26;11.60;;;10.40;;
73840;SDS011;62183;49.006;12.102;2022-09-13T08:33:52;11.50;;;10.50;;
73840;SDS011;62183;49.006;12.102;2022-09-13T08:36:17;12.65;;;11.45;;
73840;SDS011;62183;49.006;12.102;2022-09-13T08:38:46;12.07;;;10.85;;
73840;SDS011;62183;49.006;12.102;2022-09-13T08:41:21;11.43;;;10.32;;
73840;SDS011;62183;49.006;12.102;2022-09-13T08:43:50;11.30;;;10.30;;
73840;SDS011;62183;49.006;12.102;2022-09-13T08:46:22;10.68;;;9.73;;
73840;SDS011;62183;49.006;12.102;2022-09-13T08:48:49;10.05;;;9.25;;
73840;SDS011;62183;49.006;12.102;2022-09-13T08:51:58;10.60;;;9.60;;
73840;SDS011;62183;49.006;12.102;2022-09-13T08:54:04;10.77;;;9.77;;
73840;SDS011;62183;49.006;12.102;2022-09-13T08:56:40;10.93;;;10.02;;
73840;SDS011;62183;49.006;12.102;2022-09-13T09:06:53;11.40;;;10.55;;
73840;SDS011;62183;49.006;12.102;2022-09-13T09:09:19;11.80;;;10.70;;
73840;SDS011;62183;49.006;12.102;2022-09-13T09:14:19;12.15;;;11.15;;
73840;SDS011;62183;49.006;12.102;2022-09-13T09:16:47;11.65;;;10.75;;
73840;SDS011;62183;49.006;12.102;2022-09-13T09:19:21;11.77;;;10.88;;
73840;SDS011;62183;49.006;12.102;2022-09-13T09:21:48;11.82;;;10.82;;
73840;SDS011;62183;49.006;12.102;2022-09-13T09:24:33;11.75;;;10.85;;
73840;SDS011;62183;49.006;12.102;2022-09-13T09:26:59;11.20;;;10.40;;
73840;SDS011;62183;49.006;12.102;2022-09-13T09:29:29;12.07;;;10.88;;
73840;SDS011;62183;49.006;12.102;2022-09-13T09:32:13;11.60;;;10.70;;
73840;SDS011;62183;49.006;12.102;2022-09-13T09:37:25;11.77;;;10.88;;
73840;SDS011;62183;49.006;12.102;2022-09-13T09:39:52;11.55;;;10.65;;
73840;SDS011;62183;49.006;12.102;2022-09-13T09:42:21;11.43;;;10.38;;
73840;SDS011;62183;49.006;12.102;2022-09-13T09:44:55;10.80;;;9.93;;
73840;SDS011;62183;49.006;12.102;2022-09-13T09:47:21;11.57;;;10.55;;
73840;SDS011;62183;49.006;12.102;2022-09-13T09:52:13;12.70;;;11.53;;
73840;SDS011;62183;49.006;12.102;2022-09-13T09:54:39;11.65;;;10.75;;
73840;SDS011;62183;49.006;12.102;2022-09-13T09:57:04;11.47;;;10.57;;
73840;SDS011;62183;49.006;12.102;2022-09-13T09:59:30;11.70;;;10.77;;
73840;SDS011;62183;49.006;12.102;2022-09-13T10:01:56;12.77;;;11.77;;
73840;SDS011;62183;49.006;12.102;2022-09-13T10:04:22;11.32;;;10.52;;
73840;SDS011;62183;49.006;12.102;2022-09-13T10:06:48;11.50;;;10.60;;
73840;SDS011;62183;49.006;12.102;2022-09-13T10:09:14;11.32;;;10.52;;
73840;SDS011;62183;49.006;12.102;2022-09-13T10:11:52;11.73;;;10.82;;
73840;SDS011;62183;49.006;12.102;2022-09-13T10:14:38;11.05;;;10.25;;
73840;SDS011;62183;49.006;12.102;2022-09-13T10:17:04;11.20;;;10.30;;
73840;SDS011;62183;49.006;12.102;2022-09-13T10:19:30;12.98;;;11.95;;
73840;SDS011;62183;49.006;12.102;2022-09-13T10:22:08;10.88;;;10.15;;
73840;SDS011;62183;49.006;12.102;2022-09-13T10:24:34;11.20;;;10.40;;
73840;SDS011;62183;49.006;12.102;2022-09-13T10:26:59;11.73;;;10.63;;
73840;SDS011;62183;49.006;12.102;2022-09-13T10:29:27;11.18;;;10.48;;
73840;SDS011;62183;49.006;12.102;2022-09-13T10:31:53;11.50;;;10.70;;
73840;SDS011;62183;49.006;12.102;2022-09-13T10:34:19;11.02;;;10.23;;
73840;SDS011;62183;49.006;12.102;2022-09-13T10:36:50;10.93;;;10.07;;
73840;SDS011;62183;49.006;12.102;2022-09-13T10:39:17;10.77;;;10.07;;
73840;SDS011;62183;49.006;12.102;2022-09-13T10:41:47;10.68;;;9.88;;
73840;SDS011;62183;49.006;12.102;2022-09-13T10:44:24;10.70;;;10.00;;
73840;SDS011;62183;49.006;12.102;2022-09-13T10:46:51;10.63;;;9.90;;
73840;SDS011;62183;49.006;12.102;2022-09-13T10:52:00;10.20;;;9.45;;
73840;SDS011;62183;49.006;12.102;2022-09-13T10:54:28;10.70;;;9.93;;
73840;SDS011;62183;49.006;12.102;2022-09-13T10:56:53;11.18;;;10.30;;
73840;SDS011;62183;49.006;12.102;2022-09-13T11:01:49;10.70;;;10.00;;
73840;SDS011;62183;49.006;12.102;2022-09-13T11:04:26;11.30;;;10.40;;
73840;SDS011;62183;49.006;12.102;2022-09-13T11:07:13;10.25;;;9.55;;
73840;SDS011;62183;49.006;12.102;2022-09-13T11:12:52;11.20;;;10.30;;
73840;SDS011;62183;49.006;12.102;2022-09-13T11:30:22;9.77;;;9.18;;
73840;SDS011;62183;49.006;12.102;2022-09-13T11:38:00;10.40;;;9.57;;
73840;SDS011;62183;49.006;12.102;2022-09-13T11:40:34;9.18;;;8.57;;
73840;SDS011;62183;49.006;12.102;2022-09-13T11:43:17;10.40;;;9.57;;
73840;SDS011;62183;49.006;12.102;2022-09-13T11:45:49;10.20;;;9.50;;
73840;SDS011;62183;49.006;12.102;2022-09-13T11:51:03;10.80;;;10.00;;
73840;SDS011;62183;49.006;12.102;2022-09-13T11:56:18;10.10;;;9.40;;
73840;SDS011;62183;49.006;12.102;2022-09-13T12:01:34;10.27;;;9.57;;
73840;SDS011;62183;49.006;12.102;2022-09-13T12:04:03;10.40;;;9.50;;
73840;SDS011;62183;49.006;12.102;2022-09-13T12:06:31;10.50;;;9.60;;
73840;SDS011;62183;49.006;12.102;2022-09-13T12:09:11;10.95;;;10.15;;
73840;SDS011;62183;49.006;12.102;2022-09-13T12:11:41;11.10;;;10.38;;
73840;SDS011;62183;49.006;12.102;2022-09-13T12:14:11;11.45;;;10.63;;
73840;SDS011;62183;49.006;12.102;2022-09-13T12:16:38;11.20;;;10.40;;
73840;SDS011;62183;49.006;12.102;2022-09-13T12:19:06;12.27;;;11.38;;
73840;SDS011;62183;49.006;12.102;2022-09-13T12:21:36;14.57;;;13.00;;
73840;SDS011;62183;49.006;12.102;2022-09-13T12:26:51;11.82;;;10.93;;
73840;SDS011;62183;49.006;12.102;2022-09-13T12:31:43;11.53;;;10.70;;
73840;SDS011;62183;49.006;12.102;2022-09-13T12:34:09;12.23;;;11.27;;
73840;SDS011;62183;49.006;12.102;2022-09-13T12:36:47;11.52;;;10.80;;
73840;SDS011;62183;49.006;12.102;2022-09-13T12:42:24;11.60;;;10.88;;
73840;SDS011;62183;49.006;12.102;2022-09-13T12:44:59;10.88;;;10.07;;
73840;SDS011;62183;49.006;12.102;2022-09-13T12:47:33;13.10;;;10.82;;
73840;SDS011;62183;49.006;12.102;2022-09-13T12:50:13;12.15;;;11.25;;
73840;SDS011;62183;49.006;12.102;2022-09-13T13:03:31;11.77;;;10.88;;
73840;SDS011;62183;49.006;12.102;2022-09-13T13:06:09;11.57;;;10.77;;
73840;SDS011;62183;49.006;12.102;2022-09-13T13:08:35;11.10;;;10.10;;
73840;SDS011;62183;49.006;12.102;2022-09-13T13:11:02;10.77;;;10.07;;
73840;SDS011;62183;49.006;12.102;2022-09-13T13:13:31;11.55;;;10.75;;
73840;SDS011;62183;49.006;12.102;2022-09-13T13:15:59;11.38;;;10.38;;
73840;SDS011;62183;49.006;12.102;2022-09-13T13:23:34;12.47;;;11.50;;
73840;SDS011;62183;49.006;12.102;2022-09-13T13:26:00;11.45;;;10.55;;
73840;SDS011;62183;49.006;12.102;2022-09-13T13:31:10;11.27;;;10.38;;
73840;SDS011;62183;49.006;12.102;2022-09-13T13:36:24;11.07;;;10.15;;
73840;SDS011;62183;49.006;12.102;2022-09-13T13:38:50;12.00;;;11.10;;
73840;SDS011;62183;49.006;12.102;2022-09-13T13:44:00;11.23;;;10.43;;
73840;SDS011;62183;49.006;12.102;2022-09-13T13:46:27;12.43;;;11.20;;
73840;SDS011;62183;49.006;12.102;2022-09-13T13:48:52;11.27;;;10.38;;
73840;SDS011;62183;49.006;12.102;2022-09-13T13:51:19;10.18;;;9.40;;
73840;SDS011;62183;49.006;12.102;2022-09-13T13:53:46;12.00;;;11.05;;
73840;SDS011;62183;49.006;12.102;2022-09-13T14:01:25;10.75;;;9.85;;
73840;SDS011;62183;49.006;12.102;2022-09-13T14:04:36;11.00;;;9.93;;
73840;SDS011;62183;49.006;12.102;2022-09-13T14:12:36;10.32;;;9.60;;
73840;SDS011;62183;49.006;12.102;2022-09-13T14:14:39;12.18;;;10.80;;
73840;SDS011;62183;49.006;12.102;2022-09-13T14:19:49;10.77;;;9.98;;
73840;SDS011;62183;49.006;12.102;2022-09-13T14:22:19;10.32;;;9.52;;
73840;SDS011;62183;49.006;12.102;2022-09-13T14:24:45;10.55;;;9.75;;
73840;SDS011;62183;49.006;12.102;2022-09-13T14:27:19;10.55;;;9.75;;
73840;SDS011;62183;49.006;12.102;2022-09-13T14:29:46;10.20;;;9.30;;
73840;SDS011;62183;49.006;12.102;2022-09-13T14:32:12;10.48;;;9.68;;
73840;SDS011;62183;49.006;12.102;2022-09-13T14:34:48;10.45;;;9.65;;
73840;SDS011;62183;49.006;12.102;2022-09-13T14:37:17;10.80;;;10.00;;
73840;SDS011;62183;49.006;12.102;2022-09-13T14:39:52;10.88;;;10.00;;
73840;SDS011;62183;49.006;12.102;2022-09-13T14:42:18;10.63;;;9.80;;
73840;SDS011;62183;49.006;12.102;2022-09-13T14:44:43;11.07;;;10.27;;
73840;SDS011;62183;49.006;12.102;2022-09-13T14:49:41;10.67;;;9.60;;
73840;SDS011;62183;49.006;12.102;2022-09-13T14:52:08;11.48;;;10.48;;
73840;SDS011;62183;49.006;12.102;2022-09-13T14:54:38;11.15;;;10.10;;
73840;SDS011;62183;49.006;12.102;2022-09-13T14:57:06;10.93;;;9.95;;
73840;SDS011;62183;49.006;12.102;2022-09-13T14:59:34;10.40;;;9.52;;
73840;SDS011;62183;49.006;12.102;2022-09-13T15:02:19;10.88;;;9.93;;
73840;SDS011;62183;49.006;12.102;2022-09-13T15:04:50;10.85;;;10.00;;
73840;SDS011;62183;49.006;12.102;2022-09-13T15:07:18;11.40;;;10.40;;
73840;SDS011;62183;49.006;12.102;2022-09-13T15:09:45;10.57;;;9.63;;
73840;SDS011;62183;49.006;12.102;2022-09-13T15:12:19;10.82;;;9.93;;
73840;SDS011;62183;49.006;12.102;2022-09-13T15:14:46;11.07;;;10.18;;
73840;SDS011;62183;49.006;12.102;2022-09-13T15:17:11;11.43;;;10.37;;
73840;SDS011;62183;49.006;12.102;2022-09-13T15:22:03;10.53;;;9.53;;
73840;SDS011;62183;49.006;12.102;2022-09-13T15:24:30;10.23;;;9.43;;
73840;SDS011;62183;49.006;12.102;2022-09-13T15:27:00;10.20;;;9.40;;
73840;SDS011;62183;49.006;12.102;2022-09-13T15:29:25;11.90;;;10.80;;
73840;SDS011;62183;49.006;12.102;2022-09-13T15:31:50;9.90;;;8.93;;
73840;SDS011;62183;49.006;12.102;2022-09-13T15:34:22;9.18;;;8.48;;
73840;SDS011;62183;49.006;12.102;2022-09-13T15:36:48;10.13;;;9.32;;
73840;SDS011;62183;49.006;12.102;2022-09-13T15:39:25;10.65;;;9.80;;
73840;SDS011;62183;49.006;12.102;2022-09-13T15:44:15;9.70;;;8.90;;
73840;SDS011;62183;49.006;12.102;2022-09-13T15:46:48;10.90;;;10.00;;
73840;SDS011;62183;49.006;12.102;2022-09-13T15:49:17;10.77;;;9.75;;
73840;SDS011;62183;49.006;12.102;2022-09-13T15:51:43;10.98;;;9.98;;
73840;SDS011;62183;49.006;12.102;2022-09-13T15:54:15;11.15;;;10.25;;
73840;SDS011;62183;49.006;12.102;2022-09-13T15:56:42;10.93;;;10.02;;
73840;SDS011;62183;49.006;12.102;2022-09-13T15:59:10;10.70;;;9.70;;
73840;SDS011;62183;49.006;12.102;2022-09-13T16:01:36;11.65;;;10.55;;
73840;SDS011;62183;49.006;12.102;2022-09-13T16:04:01;11.33;;;10.33;;
73840;SDS011;62183;49.006;12.102;2022-09-13T16:06:27;10.27;;;9.45;;
73840;SDS011;62183;49.006;12.102;2022-09-13T16:08:52;10.53;;;9.20;;
73840;SDS011;62183;49.006;12.102;2022-09-13T16:11:17;10.40;;;9.33;;
73840;SDS011;62183;49.006;12.102;2022-09-13T16:13:42;9.80;;;8.97;;
73840;SDS011;62183;49.006;12.102;2022-09-13T16:16:09;9.87;;;8.90;;
73840;SDS011;62183;49.006;12.102;2022-09-13T16:18:35;10.10;;;9.30;;
73840;SDS011;62183;49.006;12.102;2022-09-13T16:21:01;10.33;;;9.43;;
73840;SDS011;62183;49.006;12.102;2022-09-13T16:23:26;11.30;;;10.20;;
73840;SDS011;62183;49.006;12.102;2022-09-13T16:25:52;9.60;;;8.90;;
73840;SDS011;62183;49.006;12.102;2022-09-13T16:28:19;10.90;;;10.00;;
73840;SDS011;62183;49.006;12.102;2022-09-13T16:30:45;11.05;;;10.05;;
73840;SDS011;62183;49.006;12.102;2022-09-13T16:33:10;10.00;;;9.20;;
73840;SDS011;62183;49.006;12.102;2022-09-13T16:35:35;10.07;;;9.27;;
73840;SDS011;62183;49.006;12.102;2022-09-13T16:38:00;10.60;;;9.60;;
73840;SDS011;62183;49.006;12.102;2022-09-13T16:40:26;10.60;;;9.60;;
73840;SDS011;62183;49.006;12.102;2022-09-13T16:42:51;10.20;;;9.30;;
73840;SDS011;62183;49.006;12.102;2022-09-13T16:45:16;11.05;;;9.80;;
73840;SDS011;62183;49.006;12.102;2022-09-13T16:47:41;9.77;;;8.97;;
73840;SDS011;62183;49.006;12.102;2022-09-13T16:50:07;10.17;;;9.37;;
73840;SDS011;62183;49.006;12.102;2022-09-13T16:52:34;11.18;;;10.07;;
73840;SDS011;62183;49.006;12.102;2022-09-13T16:54:59;10.10;;;9.18;;